createdAt,value
2018-02-04T00:00:10.975Z,9.93
2018-02-04T00:02:37.061Z,7.18
2018-02-04T00:05:03.150Z,7.95
2018-02-04T00:07:29.986Z,7.70
2018-02-04T00:09:56.810Z,6.57
2018-02-04T00:12:22.877Z,7.47
2018-02-04T00:14:48.941Z,7.10
2018-02-04T00:17:15.026Z,7.57
2018-02-04T00:19:41.345Z,6.30
2018-02-04T00:22:08.207Z,7.62
2018-02-04T00:24:34.278Z,6.82
2018-02-04T00:27:00.345Z,7.22
2018-02-04T00:29:26.417Z,7.57
2018-02-04T00:31:52.502Z,7.22
2018-02-04T00:34:18.578Z,9.52
2018-02-04T00:36:45.049Z,10.20
2018-02-04T00:39:11.867Z,9.02
2018-02-04T00:41:38.542Z,8.45
2018-02-04T00:44:04.613Z,6.87
2018-02-04T00:46:30.701Z,7.80
2018-02-04T00:48:56.779Z,8.75
2018-02-04T00:51:22.845Z,8.98
2018-02-04T00:53:48.914Z,8.00
2018-02-04T00:56:15.002Z,9.13
2018-02-04T00:58:41.085Z,7.87
2018-02-04T01:01:07.166Z,8.73
2018-02-04T01:03:33.294Z,11.45
2018-02-04T01:05:59.373Z,7.97
2018-02-04T01:08:26.206Z,8.82
2018-02-04T01:10:52.285Z,8.73
2018-02-04T01:13:18.368Z,8.20
2018-02-04T01:15:45.232Z,7.80
2018-02-04T01:18:11.314Z,7.80
2018-02-04T01:20:37.653Z,8.15
2018-02-04T01:23:04.473Z,7.22
2018-02-04T01:25:30.641Z,7.80
2018-02-04T01:27:56.780Z,8.07
2018-02-04T01:30:22.855Z,7.90
2018-02-04T01:32:48.941Z,8.18
2018-02-04T01:35:15.005Z,8.02
2018-02-04T01:37:41.290Z,8.57
2018-02-04T01:40:07.378Z,9.15
2018-02-04T01:42:33.446Z,7.68
2018-02-04T01:44:59.538Z,8.07
2018-02-04T01:47:25.638Z,12.35
2018-02-04T01:49:51.701Z,8.13
2018-02-04T01:52:17.852Z,9.00
2018-02-04T01:54:43.930Z,7.70
2018-02-04T01:57:09.997Z,8.48
2018-02-04T01:59:36.154Z,8.43
2018-02-04T02:02:02.240Z,7.60
2018-02-04T02:04:28.347Z,7.20
2018-02-04T02:06:54.450Z,8.02
2018-02-04T02:09:20.516Z,8.27
2018-02-04T02:11:46.597Z,9.60
2018-02-04T02:14:12.693Z,8.38
2018-02-04T02:16:39.385Z,8.27
2018-02-04T02:19:05.460Z,7.05
2018-02-04T02:21:31.529Z,9.48
2018-02-04T02:23:58.667Z,7.65
2018-02-04T02:26:25.529Z,7.07
2018-02-04T02:28:51.643Z,7.70
2018-02-04T02:31:18.449Z,7.90
2018-02-04T02:33:44.532Z,6.95
2018-02-04T02:36:10.614Z,7.50
2018-02-04T02:38:36.688Z,6.30
2018-02-04T02:41:02.781Z,7.80
2018-02-04T02:43:29.803Z,6.75
2018-02-04T02:45:55.890Z,7.45
2018-02-04T02:48:21.989Z,6.90
2018-02-04T02:50:48.804Z,7.03
2018-02-04T02:53:14.885Z,7.85
2018-02-04T02:55:40.962Z,7.35
2018-02-04T02:58:07.139Z,6.15
2018-02-04T03:00:33.242Z,7.72
2018-02-04T03:02:59.309Z,6.97
2018-02-04T03:05:25.389Z,6.93
2018-02-04T03:07:51.814Z,8.13
2018-02-04T03:10:17.901Z,7.30
2018-02-04T03:12:43.970Z,6.97
2018-02-04T03:15:10.829Z,9.40
2018-02-04T03:17:36.986Z,8.25
2018-02-04T03:20:03.077Z,8.30
2018-02-04T03:22:29.199Z,8.35
2018-02-04T03:24:55.481Z,7.75
2018-02-04T03:27:21.561Z,9.68
2018-02-04T03:29:47.641Z,8.73
2018-02-04T03:32:13.722Z,7.55
2018-02-04T03:34:39.833Z,9.70
2018-02-04T03:37:05.913Z,10.60
2018-02-04T03:39:31.998Z,10.18
2018-02-04T03:41:58.070Z,10.02
2018-02-04T03:44:24.181Z,10.90
2018-02-04T03:46:50.257Z,12.07
2018-02-04T03:49:16.345Z,13.10
2018-02-04T03:51:42.430Z,10.55
2018-02-04T03:54:08.945Z,10.40
2018-02-04T03:56:35.025Z,12.10
2018-02-04T03:59:01.111Z,12.10
2018-02-04T04:01:27.196Z,10.88
2018-02-04T04:03:54.017Z,9.85
2018-02-04T04:06:20.225Z,10.00
2018-02-04T04:08:46.312Z,9.55
2018-02-04T04:11:12.387Z,10.98
2018-02-04T04:13:38.474Z,11.55
2018-02-04T04:16:04.557Z,11.68
2018-02-04T04:18:30.626Z,12.25
2018-02-04T04:20:56.709Z,11.00
2018-02-04T04:23:23.517Z,11.23
2018-02-04T04:25:49.586Z,11.23
2018-02-04T04:28:15.676Z,11.73
2018-02-04T04:30:41.758Z,14.25
2018-02-04T04:33:07.893Z,12.63
2018-02-04T04:35:33.964Z,11.77
2018-02-04T04:38:00.046Z,10.63
2018-02-04T04:40:26.133Z,10.50
2018-02-04T04:42:52.205Z,11.50
2018-02-04T04:45:18.291Z,9.90
2018-02-04T04:47:45.117Z,11.75
2018-02-04T04:50:12.250Z,10.25
2018-02-04T04:52:38.358Z,10.60
2018-02-04T04:55:04.473Z,11.05
2018-02-04T04:57:30.533Z,16.02
2018-02-04T04:59:56.633Z,11.90
2018-02-04T05:02:22.715Z,11.38
2018-02-04T05:04:48.797Z,12.68
2018-02-04T05:07:14.870Z,11.52
2018-02-04T05:09:40.938Z,11.93
2018-02-04T05:12:07.037Z,12.00
2018-02-04T05:14:33.509Z,15.45
2018-02-04T05:16:59.582Z,12.82
2018-02-04T05:19:25.729Z,12.43
2018-02-04T05:21:51.801Z,11.18
2018-02-04T05:24:18.633Z,9.57
2018-02-04T05:26:44.721Z,8.43
2018-02-04T05:29:10.785Z,9.15
2018-02-04T05:31:36.868Z,8.02
2018-02-04T05:34:02.940Z,7.85
2018-02-04T05:36:29.014Z,9.02
2018-02-04T05:38:55.110Z,8.20
2018-02-04T05:41:21.925Z,9.10
2018-02-04T05:43:48.005Z,7.68
2018-02-04T05:46:14.087Z,7.75
2018-02-04T05:48:40.917Z,9.00
2018-02-04T05:51:07.384Z,12.23
2018-02-04T05:53:33.465Z,7.57
2018-02-04T05:55:59.535Z,8.07
2018-02-04T05:58:25.597Z,8.18
2018-02-04T06:00:51.682Z,7.60
2018-02-04T06:03:17.757Z,8.15
2018-02-04T06:05:43.827Z,8.20
2018-02-04T06:08:10.658Z,6.40
2018-02-04T06:10:37.485Z,7.97
2018-02-04T06:13:03.585Z,8.98
2018-02-04T06:15:29.654Z,8.30
2018-02-04T06:17:55.721Z,9.38
2018-02-04T06:20:21.830Z,8.98
2018-02-04T06:22:47.937Z,9.10
2018-02-04T06:25:14.780Z,8.98
2018-02-04T06:27:40.871Z,10.52
2018-02-04T06:30:06.970Z,9.00
2018-02-04T06:32:33.057Z,8.85
2018-02-04T06:34:59.208Z,9.50
2018-02-04T06:37:25.270Z,9.35
2018-02-04T06:39:51.354Z,8.63
2018-02-04T06:42:17.421Z,8.68
2018-02-04T06:44:43.506Z,7.30
2018-02-04T06:47:09.578Z,11.40
2018-02-04T06:49:36.034Z,8.25
2018-02-04T06:52:02.872Z,9.10
2018-02-04T06:54:28.961Z,8.65
2018-02-04T06:56:55.035Z,10.15
2018-02-04T06:59:21.146Z,10.23
2018-02-04T07:01:47.988Z,9.85
2018-02-04T07:04:14.818Z,10.13
2018-02-04T07:06:41.877Z,8.93
2018-02-04T07:09:08.701Z,9.00
2018-02-04T07:11:34.778Z,10.80
2018-02-04T07:14:00.858Z,10.30
2018-02-04T07:16:26.948Z,10.88
2018-02-04T07:18:53.022Z,10.80
2018-02-04T07:21:19.845Z,11.25
2018-02-04T07:23:45.913Z,10.13
2018-02-04T07:26:12.016Z,10.00
2018-02-04T07:28:38.874Z,10.73
2018-02-04T07:31:05.811Z,10.77
2018-02-04T07:33:32.628Z,11.02
2018-02-04T07:35:58.710Z,12.07
2018-02-04T07:38:24.796Z,13.60
2018-02-04T07:40:50.866Z,9.50
2018-02-04T07:43:16.949Z,10.75
2018-02-04T07:45:43.797Z,10.18
2018-02-04T07:48:09.862Z,10.15
2018-02-04T07:50:35.921Z,13.75
2018-02-04T07:53:02.077Z,10.85
2018-02-04T07:55:28.158Z,9.60
2018-02-04T07:57:54.250Z,12.82
2018-02-04T08:00:20.335Z,10.90
2018-02-04T08:02:46.425Z,11.12
2018-02-04T08:05:12.498Z,9.95
2018-02-04T08:07:38.582Z,10.15
2018-02-04T08:10:04.659Z,13.40
2018-02-04T08:12:30.770Z,11.02
2018-02-04T08:14:57.581Z,10.60
2018-02-04T08:17:23.646Z,8.18
2018-02-04T08:19:49.721Z,8.85
2018-02-04T08:22:15.789Z,10.52
2018-02-04T08:24:42.802Z,9.18
2018-02-04T08:27:08.887Z,9.02
2018-02-04T08:29:34.972Z,7.60
2018-02-04T08:32:01.053Z,8.00
2018-02-04T08:34:27.138Z,8.85
2018-02-04T08:36:53.246Z,5.95
2018-02-04T08:39:20.057Z,6.97
2018-02-04T08:41:46.146Z,7.22
2018-02-04T08:44:12.237Z,6.82
2018-02-04T08:46:38.294Z,6.70
2018-02-04T08:49:04.617Z,6.00
2018-02-04T08:51:30.693Z,4.68
2018-02-04T08:53:56.818Z,5.72
2018-02-04T08:56:22.903Z,5.60
2018-02-04T08:58:48.974Z,6.72
2018-02-04T09:01:15.050Z,8.52
2018-02-04T09:03:41.136Z,5.60
2018-02-04T09:06:07.274Z,5.75
2018-02-04T09:08:33.349Z,6.65
2018-02-04T09:10:59.609Z,6.22
2018-02-04T09:13:26.377Z,6.10
2018-02-04T09:15:53.194Z,5.78
2018-02-04T09:18:19.265Z,5.72
2018-02-04T09:20:45.341Z,4.47
2018-02-04T09:23:11.434Z,6.37
2018-02-04T09:25:38.021Z,5.53
2018-02-04T09:28:04.159Z,6.65
2018-02-04T09:30:30.246Z,6.00
2018-02-04T09:32:56.326Z,5.10
2018-02-04T09:35:22.411Z,5.57
2018-02-04T09:37:48.501Z,5.10
2018-02-04T09:40:14.594Z,5.35
2018-02-04T09:42:40.996Z,4.45
2018-02-04T09:45:07.086Z,5.60
2018-02-04T09:47:33.175Z,6.28
2018-02-04T09:49:59.267Z,6.03
2018-02-04T09:52:25.358Z,5.05
2018-02-04T09:54:51.441Z,6.70
2018-02-04T09:57:17.742Z,5.68
2018-02-04T09:59:45.009Z,5.32
2018-02-04T10:02:11.093Z,6.05
2018-02-04T10:04:37.174Z,8.77
2018-02-04T10:07:03.277Z,5.43
2018-02-04T10:09:30.101Z,8.55
2018-02-04T10:11:56.205Z,6.93
2018-02-04T10:14:22.301Z,14.23
2018-02-04T10:16:48.408Z,16.83
2018-02-04T10:19:14.500Z,9.90
2018-02-04T10:21:40.774Z,10.68
2018-02-04T10:24:06.846Z,16.33
2018-02-04T10:26:32.930Z,11.85
2018-02-04T10:28:59.033Z,7.00
2018-02-04T10:31:25.837Z,32.08
2018-02-04T10:33:51.926Z,15.20
2018-02-04T10:36:18.007Z,10.07
2018-02-04T10:38:44.089Z,20.35
2018-02-04T10:41:10.225Z,9.80
2018-02-04T10:43:36.330Z,11.40
2018-02-04T10:46:02.418Z,9.18
2018-02-04T10:48:28.513Z,8.20
2018-02-04T10:53:59.729Z,7.93
2018-02-04T10:56:25.817Z,13.35
2018-02-04T10:58:51.905Z,9.55
2018-02-04T11:01:17.993Z,9.43
2018-02-04T11:03:44.818Z,10.55
2018-02-04T11:06:10.928Z,8.10
2018-02-04T11:08:36.992Z,9.30
2018-02-04T11:11:03.813Z,7.62
2018-02-04T11:13:29.897Z,9.20
2018-02-04T11:15:55.978Z,7.72
2018-02-04T11:18:23.680Z,7.45
2018-02-04T11:20:49.769Z,13.25
2018-02-04T11:23:16.598Z,14.70
2018-02-04T11:25:42.857Z,17.75
2018-02-04T11:28:08.938Z,12.93
2018-02-04T11:30:35.041Z,16.12
2018-02-04T11:33:01.133Z,12.85
2018-02-04T11:35:27.221Z,11.32
2018-02-04T11:37:53.348Z,12.02
2018-02-04T11:40:19.429Z,15.15
2018-02-04T11:42:45.497Z,21.70
2018-02-04T11:45:11.583Z,10.10
2018-02-04T11:47:37.655Z,9.00
2018-02-04T11:50:04.506Z,33.85
2018-02-04T11:52:30.826Z,12.60
2018-02-04T11:54:56.913Z,20.08
2018-02-04T11:57:23.005Z,10.20
2018-02-04T11:59:49.102Z,17.02
2018-02-04T12:02:15.941Z,9.93
2018-02-04T12:04:42.017Z,8.50
2018-02-04T12:07:08.120Z,10.93
2018-02-04T12:09:34.929Z,14.40
2018-02-04T12:12:01.011Z,12.55
2018-02-04T12:14:27.098Z,8.02
2018-02-04T12:16:53.205Z,9.32
2018-02-04T12:19:19.357Z,8.45
2018-02-04T12:21:46.189Z,9.10
2018-02-04T12:24:13.041Z,8.90
2018-02-04T12:26:39.107Z,9.70
2018-02-04T12:29:05.282Z,8.32
2018-02-04T12:31:31.353Z,7.87
2018-02-04T12:33:57.438Z,8.48
2018-02-04T12:36:24.516Z,7.97
2018-02-04T12:38:50.600Z,7.28
2018-02-04T12:41:16.674Z,8.43
2018-02-04T12:43:42.757Z,8.30
2018-02-04T12:46:08.849Z,7.85
2018-02-04T12:48:34.925Z,7.37
2018-02-04T12:51:01.249Z,6.43
2018-02-04T12:53:27.363Z,7.45
2018-02-04T12:55:54.186Z,7.53
2018-02-04T12:58:20.270Z,6.10
2018-02-04T13:00:46.358Z,6.43
2018-02-04T13:03:13.178Z,5.60
2018-02-04T13:05:40.721Z,6.00
2018-02-04T13:08:06.850Z,5.45
2018-02-04T13:10:33.718Z,6.07
2018-02-04T13:12:59.820Z,5.90
2018-02-04T13:15:25.885Z,5.87
2018-02-04T13:17:51.973Z,5.07
2018-02-04T13:20:18.058Z,5.47
2018-02-04T13:22:44.132Z,5.50
2018-02-04T13:25:10.282Z,4.97
2018-02-04T13:27:37.117Z,5.97
2018-02-04T13:30:03.201Z,5.35
2018-02-04T13:32:29.286Z,5.75
2018-02-04T13:34:55.414Z,4.30
2018-02-04T13:37:21.502Z,4.30
2018-02-04T13:39:47.586Z,5.15
2018-02-04T13:42:13.664Z,5.57
2018-02-04T13:44:39.749Z,4.82
2018-02-04T13:47:05.845Z,5.43
2018-02-04T13:49:31.915Z,5.05
2018-02-04T13:51:58.003Z,4.62
2018-02-04T13:54:24.084Z,6.15
2018-02-04T13:56:50.417Z,5.25
2018-02-04T13:59:16.505Z,5.18
2018-02-04T14:01:42.582Z,5.62
2018-02-04T14:04:09.401Z,5.22
2018-02-04T14:06:35.498Z,4.70
2018-02-04T14:09:01.581Z,4.15
2018-02-04T14:11:28.393Z,5.97
2018-02-04T14:13:54.481Z,4.87
2018-02-04T14:16:20.548Z,5.80
2018-02-04T14:18:46.638Z,6.78
2018-02-04T14:21:12.745Z,5.28
2018-02-04T14:23:38.829Z,4.75
2018-02-04T14:26:05.287Z,5.12
2018-02-04T14:28:31.385Z,4.60
2018-02-04T14:30:57.462Z,3.60
2018-02-04T14:33:23.559Z,5.07
2018-02-04T14:35:50.435Z,4.87
2018-02-04T14:38:16.521Z,5.00
2018-02-04T14:40:42.597Z,7.03
2018-02-04T14:43:08.690Z,4.90
2018-02-04T14:45:34.777Z,4.43
2018-02-04T14:48:00.865Z,3.65
2018-02-04T14:50:26.941Z,4.30
2018-02-04T14:52:53.038Z,4.30
2018-02-04T14:55:19.118Z,5.00
2018-02-04T14:57:45.847Z,4.43
2018-02-04T15:00:11.946Z,4.82
2018-02-04T15:02:38.013Z,5.05
2018-02-04T15:05:04.093Z,4.55
2018-02-04T15:07:30.199Z,4.72
2018-02-04T15:09:56.309Z,6.28
2018-02-04T15:12:22.410Z,5.03
2018-02-04T15:14:48.502Z,4.50
2018-02-04T15:17:14.565Z,5.62
2018-02-04T15:19:40.637Z,4.97
2018-02-04T15:22:06.734Z,5.12
2018-02-04T15:24:33.317Z,4.65
2018-02-04T15:27:00.127Z,4.43
2018-02-04T15:29:26.193Z,4.87
2018-02-04T15:31:53.014Z,5.05
2018-02-04T15:34:19.089Z,6.07
2018-02-04T15:36:45.161Z,5.10
2018-02-04T15:39:13.046Z,5.43
2018-02-04T15:41:39.128Z,4.55
2018-02-04T15:44:05.205Z,5.07
2018-02-04T15:46:31.298Z,6.70
2018-02-04T15:48:57.386Z,6.25
2018-02-04T15:51:23.457Z,7.37
2018-02-04T15:53:49.525Z,6.72
2018-02-04T15:56:15.594Z,5.35
2018-02-04T15:58:41.729Z,6.20
2018-02-04T16:01:07.801Z,8.35
2018-02-04T16:03:33.908Z,5.90
2018-02-04T16:06:00.729Z,7.47
2018-02-04T16:08:26.821Z,6.90
2018-02-04T16:10:52.938Z,7.32
2018-02-04T16:13:19.005Z,6.90
2018-02-04T16:15:45.079Z,7.62
2018-02-04T16:18:11.261Z,6.28
2018-02-04T16:20:37.347Z,6.30
2018-02-04T16:23:03.795Z,8.75
2018-02-04T16:25:30.234Z,8.20
2018-02-04T16:27:56.300Z,6.82
2018-02-04T16:30:22.421Z,9.43
2018-02-04T16:32:49.240Z,8.20
2018-02-04T16:35:15.325Z,8.15
2018-02-04T16:37:41.405Z,8.48
2018-02-04T16:40:07.481Z,8.05
2018-02-04T16:42:33.558Z,9.00
2018-02-04T16:44:59.633Z,8.65
2018-02-04T16:47:25.728Z,11.30
2018-02-04T16:49:51.798Z,9.77
2018-02-04T16:52:18.254Z,9.68
2018-02-04T16:54:44.340Z,9.23
2018-02-04T16:57:10.413Z,8.85
2018-02-04T16:59:36.489Z,9.73
2018-02-04T17:02:02.594Z,10.93
2018-02-04T17:04:28.674Z,11.15
2018-02-04T17:06:54.802Z,9.07
2018-02-04T17:09:20.880Z,11.57
2018-02-04T17:11:46.973Z,8.98
2018-02-04T17:14:13.818Z,10.05
2018-02-04T17:16:39.901Z,15.60
2018-02-04T17:19:05.989Z,14.45
2018-02-04T17:21:32.294Z,10.15
2018-02-04T17:23:58.393Z,11.38
2018-02-04T17:26:24.476Z,9.80
2018-02-04T17:28:50.547Z,10.38
2018-02-04T17:31:16.621Z,11.93
2018-02-04T17:33:42.698Z,13.50
2018-02-04T17:36:08.805Z,8.90
2018-02-04T17:38:34.881Z,11.23
2018-02-04T17:41:00.954Z,11.15
2018-02-04T17:43:27.052Z,13.30
2018-02-04T17:45:53.139Z,12.07
2018-02-04T17:48:19.958Z,9.57
2018-02-04T17:50:46.058Z,9.77
2018-02-04T17:53:12.147Z,9.77
2018-02-04T17:55:38.250Z,11.05
2018-02-04T17:58:04.334Z,10.00
2018-02-04T18:00:30.460Z,9.70
2018-02-04T18:02:56.542Z,8.85
2018-02-04T18:05:22.621Z,12.15
2018-02-04T18:07:48.724Z,9.70
2018-02-04T18:10:14.805Z,9.25
2018-02-04T18:12:41.627Z,11.20
2018-02-04T18:15:07.695Z,8.98
2018-02-04T18:17:33.769Z,8.70
2018-02-04T18:20:00.346Z,9.65
2018-02-04T18:22:26.426Z,9.27
2018-02-04T18:24:52.569Z,8.80
2018-02-04T18:27:18.640Z,10.32
2018-02-04T18:29:44.738Z,10.02
2018-02-04T18:32:11.577Z,9.32
2018-02-04T18:34:38.434Z,9.05
2018-02-04T18:37:04.710Z,8.70
2018-02-04T18:39:30.790Z,8.93
2018-02-04T18:41:56.906Z,13.43
2018-02-04T18:44:22.993Z,9.95
2018-02-04T18:46:49.073Z,11.02
2018-02-04T18:49:15.145Z,11.15
2018-02-04T18:51:41.209Z,10.13
2018-02-04T18:54:07.286Z,10.18
2018-02-04T18:56:33.675Z,10.70
2018-02-04T18:58:59.758Z,9.02
2018-02-04T19:01:25.934Z,11.05
2018-02-04T19:03:52.025Z,11.45
2018-02-04T19:06:18.122Z,11.35
2018-02-04T19:08:44.209Z,10.32
2018-02-04T19:11:10.315Z,9.77
2018-02-04T19:13:36.412Z,13.05
2018-02-04T19:16:02.530Z,9.98
2018-02-04T19:18:28.606Z,11.90
2018-02-04T19:20:54.690Z,10.13
2018-02-04T19:23:20.782Z,8.98
2018-02-04T19:25:46.862Z,8.38
2018-02-04T19:28:13.690Z,10.82
2018-02-04T19:30:39.769Z,10.10
2018-02-04T19:33:06.111Z,11.68
2018-02-04T19:35:32.202Z,15.27
2018-02-04T19:37:58.281Z,9.98
2018-02-04T19:40:24.384Z,9.43
2018-02-04T19:42:50.482Z,10.10
2018-02-04T19:45:16.562Z,6.90
2018-02-04T19:47:42.633Z,10.55
2018-02-04T19:50:08.726Z,8.60
2018-02-04T19:52:35.554Z,10.68
2018-02-04T19:55:01.655Z,7.47
2018-02-04T19:57:28.154Z,7.35
2018-02-04T19:59:54.228Z,7.30
2018-02-04T20:02:20.326Z,7.75
2018-02-04T20:04:46.406Z,7.28
2018-02-04T20:07:12.485Z,8.85
2018-02-04T20:09:38.581Z,8.60
2018-02-04T20:12:04.702Z,7.95
2018-02-04T20:14:30.802Z,8.73
2018-02-04T20:16:56.936Z,10.95
2018-02-04T20:19:23.764Z,7.90
2018-02-04T20:21:49.858Z,7.55
2018-02-04T20:24:15.935Z,7.00
2018-02-04T20:26:42.036Z,7.35
2018-02-04T20:29:08.125Z,8.40
2018-02-04T20:31:34.214Z,6.28
2018-02-04T20:34:19.621Z,8.75
2018-02-04T20:36:45.697Z,7.35
2018-02-04T20:39:11.799Z,7.15
2018-02-04T20:41:37.873Z,8.35
2018-02-04T20:44:03.950Z,8.50
2018-02-04T20:46:30.046Z,7.50
2018-02-04T20:48:56.545Z,7.50
2018-02-04T20:51:23.374Z,6.93
2018-02-04T20:53:49.450Z,7.60
2018-02-04T20:56:15.599Z,6.82
2018-02-04T20:58:41.660Z,7.47
2018-02-04T21:01:07.758Z,6.97
2018-02-04T21:03:33.843Z,6.93
2018-02-04T21:06:00.218Z,6.30
2018-02-04T21:08:26.313Z,6.12
2018-02-04T21:10:52.405Z,6.43
2018-02-04T21:13:19.225Z,5.97
2018-02-04T21:15:46.043Z,6.53
2018-02-04T21:18:12.127Z,5.85
2018-02-04T21:20:38.213Z,7.70
2018-02-04T21:23:04.314Z,7.68
2018-02-04T21:25:30.408Z,5.65
2018-02-04T21:27:56.489Z,7.37
2018-02-04T21:30:22.644Z,5.30
2018-02-04T21:32:49.481Z,7.75
2018-02-04T21:35:16.302Z,5.53
2018-02-04T21:37:42.370Z,6.30
2018-02-04T21:40:08.462Z,6.85
2018-02-04T21:42:34.563Z,7.25
2018-02-04T21:45:00.648Z,4.93
2018-02-04T21:47:26.784Z,5.53
2018-02-04T21:49:53.069Z,4.18
2018-02-04T21:52:20.207Z,5.68
2018-02-04T21:54:46.269Z,4.60
2018-02-04T21:57:12.358Z,5.22
2018-02-04T21:59:38.438Z,6.65
2018-02-04T22:02:04.510Z,4.50
2018-02-04T22:04:32.081Z,7.20
2018-02-04T22:06:59.133Z,5.90
2018-02-04T22:09:25.541Z,5.25
2018-02-04T22:11:51.611Z,6.35
2018-02-04T22:14:17.698Z,4.75
2018-02-04T22:16:43.781Z,4.30
2018-02-04T22:19:09.866Z,6.43
2018-02-04T22:21:35.936Z,5.18
2018-02-04T22:24:02.546Z,4.75
2018-02-04T22:26:28.605Z,6.85
2018-02-04T22:28:54.673Z,5.10
2018-02-04T22:31:20.799Z,6.80
2018-02-04T22:33:46.869Z,5.62
2018-02-04T22:36:12.941Z,5.05
2018-02-04T22:38:39.021Z,8.10
2018-02-04T22:41:05.115Z,6.80
2018-02-04T22:43:31.933Z,6.05
2018-02-04T22:45:58.005Z,7.00
2018-02-04T22:48:24.085Z,4.90
2018-02-04T22:50:50.281Z,9.20
2018-02-04T22:53:16.664Z,8.88
2018-02-04T22:55:43.481Z,5.57
2018-02-04T22:58:09.565Z,5.32
2018-02-04T23:00:35.654Z,6.65
2018-02-04T23:03:01.758Z,6.68
2018-02-04T23:05:27.893Z,5.87
2018-02-04T23:07:54.958Z,6.22
2018-02-04T23:10:21.048Z,6.40
2018-02-04T23:12:47.117Z,6.40
2018-02-04T23:15:13.634Z,5.37
2018-02-04T23:17:40.464Z,6.93
2018-02-04T23:20:06.594Z,6.00
2018-02-04T23:22:34.146Z,7.18
2018-02-04T23:25:00.225Z,6.93
2018-02-04T23:27:26.301Z,4.90
2018-02-04T23:29:52.373Z,5.87
2018-02-04T23:32:18.471Z,4.65
2018-02-04T23:34:45.289Z,5.60
2018-02-04T23:37:11.370Z,5.30
2018-02-04T23:39:37.433Z,6.87
2018-02-04T23:42:03.565Z,6.20
2018-02-04T23:44:29.650Z,6.05
2018-02-04T23:46:55.713Z,6.43
2018-02-04T23:49:21.792Z,6.30
2018-02-04T23:51:47.879Z,4.72
2018-02-04T23:54:13.959Z,5.57
2018-02-04T23:56:40.533Z,5.25
2018-02-04T23:59:07.348Z,5.20
